sensor_id;sensor_type;location;lat;lon;timestamp;P1;durP1;ratioP1;P2;durP2;ratioP2
4182;SDS011;2105;52.300;9.182;2022-09-12T00:01:14;11.20;;;9.27;;
4182;SDS011;2105;52.300;9.182;2022-09-12T00:03:43;13.37;;;9.97;;
4182;SDS011;2105;52.300;9.182;2022-09-12T00:06:11;19.97;;;8.90;;
4182;SDS011;2105;52.300;9.182;2022-09-12T00:08:40;16.80;;;10.03;;
4182;SDS011;2105;52.300;9.182;2022-09-12T00:11:09;13.83;;;9.90;;
4182;SDS011;2105;52.300;9.182;2022-09-12T00:13:37;13.13;;;10.00;;
4182;SDS011;2105;52.300;9.182;2022-09-12T00:16:05;19.30;;;10.43;;
4182;SDS011;2105;52.300;9.182;2022-09-12T00:18:32;14.73;;;9.57;;
4182;SDS011;2105;52.300;9.182;2022-09-12T00:21:01;18.53;;;9.20;;
4182;SDS011;2105;52.300;9.182;2022-09-12T00:23:29;18.37;;;10.87;;
4182;SDS011;2105;52.300;9.182;2022-09-12T00:25:56;16.60;;;9.47;;
4182;SDS011;2105;52.300;9.182;2022-09-12T00:28:24;14.03;;;9.67;;
4182;SDS011;2105;52.300;9.182;2022-09-12T00:30:51;13.10;;;9.47;;
4182;SDS011;2105;52.300;9.182;2022-09-12T00:33:18;19.00;;;9.70;;
4182;SDS011;2105;52.300;9.182;2022-09-12T00:35:46;18.00;;;10.27;;
4182;SDS011;2105;52.300;9.182;2022-09-12T00:38:15;22.87;;;10.80;;
4182;SDS011;2105;52.300;9.182;2022-09-12T00:40:42;17.73;;;10.87;;
4182;SDS011;2105;52.300;9.182;2022-09-12T00:43:10;16.77;;;9.63;;
4182;SDS011;2105;52.300;9.182;2022-09-12T00:45:40;21.77;;;9.90;;
4182;SDS011;2105;52.300;9.182;2022-09-12T00:48:10;15.87;;;10.73;;
4182;SDS011;2105;52.300;9.182;2022-09-12T00:50:57;16.50;;;10.80;;
4182;SDS011;2105;52.300;9.182;2022-09-12T00:53:24;14.77;;;10.40;;
4182;SDS011;2105;52.300;9.182;2022-09-12T00:55:51;12.87;;;9.40;;
4182;SDS011;2105;52.300;9.182;2022-09-12T00:58:20;12.67;;;8.63;;
4182;SDS011;2105;52.300;9.182;2022-09-12T01:00:51;14.40;;;9.27;;
4182;SDS011;2105;52.300;9.182;2022-09-12T01:03:18;16.23;;;10.37;;
4182;SDS011;2105;52.300;9.182;2022-09-12T01:05:48;14.97;;;10.30;;
4182;SDS011;2105;52.300;9.182;2022-09-12T01:08:21;13.20;;;9.70;;
4182;SDS011;2105;52.300;9.182;2022-09-12T01:10:48;11.87;;;9.20;;
4182;SDS011;2105;52.300;9.182;2022-09-12T01:13:15;14.30;;;9.47;;
4182;SDS011;2105;52.300;9.182;2022-09-12T01:15:42;13.70;;;9.80;;
4182;SDS011;2105;52.300;9.182;2022-09-12T01:18:12;19.03;;;10.53;;
4182;SDS011;2105;52.300;9.182;2022-09-12T01:20:45;13.97;;;9.73;;
4182;SDS011;2105;52.300;9.182;2022-09-12T01:26:39;21.53;;;10.10;;
4182;SDS011;2105;52.300;9.182;2022-09-12T01:32:33;16.10;;;10.30;;
4182;SDS011;2105;52.300;9.182;2022-09-12T01:35:10;16.23;;;10.17;;
4182;SDS011;2105;52.300;9.182;2022-09-12T01:37:46;12.73;;;9.87;;
4182;SDS011;2105;52.300;9.182;2022-09-12T01:40:20;11.97;;;9.03;;
4182;SDS011;2105;52.300;9.182;2022-09-12T01:42:52;16.90;;;8.73;;
4182;SDS011;2105;52.300;9.182;2022-09-12T01:45:28;15.13;;;8.53;;
4182;SDS011;2105;52.300;9.182;2022-09-12T01:48:01;11.93;;;8.20;;
4182;SDS011;2105;52.300;9.182;2022-09-12T01:50:35;14.70;;;9.13;;
4182;SDS011;2105;52.300;9.182;2022-09-12T01:53:11;13.13;;;9.80;;
4182;SDS011;2105;52.300;9.182;2022-09-12T01:55:44;13.90;;;8.83;;
4182;SDS011;2105;52.300;9.182;2022-09-12T01:58:14;15.50;;;8.57;;
4182;SDS011;2105;52.300;9.182;2022-09-12T02:00:46;14.00;;;9.73;;
4182;SDS011;2105;52.300;9.182;2022-09-12T02:03:19;18.00;;;11.67;;
4182;SDS011;2105;52.300;9.182;2022-09-12T02:05:51;19.97;;;11.10;;
4182;SDS011;2105;52.300;9.182;2022-09-12T02:08:22;20.30;;;10.00;;
4182;SDS011;2105;52.300;9.182;2022-09-12T02:10:54;22.23;;;10.90;;
4182;SDS011;2105;52.300;9.182;2022-09-12T02:13:25;17.93;;;10.47;;
4182;SDS011;2105;52.300;9.182;2022-09-12T02:15:59;17.77;;;12.00;;
4182;SDS011;2105;52.300;9.182;2022-09-12T02:18:30;19.07;;;11.93;;
4182;SDS011;2105;52.300;9.182;2022-09-12T02:20:59;21.40;;;12.40;;
4182;SDS011;2105;52.300;9.182;2022-09-12T02:23:29;25.10;;;13.67;;
4182;SDS011;2105;52.300;9.182;2022-09-12T02:25:59;25.30;;;13.20;;
4182;SDS011;2105;52.300;9.182;2022-09-12T02:28:29;22.77;;;12.67;;
4182;SDS011;2105;52.300;9.182;2022-09-12T02:31:00;21.80;;;13.63;;
4182;SDS011;2105;52.300;9.182;2022-09-12T02:33:36;19.03;;;12.23;;
4182;SDS011;2105;52.300;9.182;2022-09-12T02:36:11;20.23;;;11.80;;
4182;SDS011;2105;52.300;9.182;2022-09-12T02:38:48;21.60;;;12.03;;
4182;SDS011;2105;52.300;9.182;2022-09-12T02:41:16;31.80;;;12.77;;
4182;SDS011;2105;52.300;9.182;2022-09-12T02:43:45;22.50;;;13.13;;
4182;SDS011;2105;52.300;9.182;2022-09-12T02:46:14;19.57;;;13.07;;
4182;SDS011;2105;52.300;9.182;2022-09-12T02:48:47;20.30;;;13.10;;
4182;SDS011;2105;52.300;9.182;2022-09-12T02:51:13;21.40;;;13.87;;
4182;SDS011;2105;52.300;9.182;2022-09-12T02:53:41;23.50;;;12.77;;
4182;SDS011;2105;52.300;9.182;2022-09-12T02:56:09;17.23;;;13.07;;
4182;SDS011;2105;52.300;9.182;2022-09-12T02:58:41;21.63;;;13.10;;
4182;SDS011;2105;52.300;9.182;2022-09-12T03:01:10;18.40;;;11.97;;
4182;SDS011;2105;52.300;9.182;2022-09-12T03:03:53;42.47;;;15.03;;
4182;SDS011;2105;52.300;9.182;2022-09-12T03:06:38;20.13;;;11.80;;
4182;SDS011;2105;52.300;9.182;2022-09-12T03:09:16;21.50;;;12.73;;
4182;SDS011;2105;52.300;9.182;2022-09-12T03:12:00;21.20;;;14.13;;
4182;SDS011;2105;52.300;9.182;2022-09-12T03:14:39;21.27;;;12.13;;
4182;SDS011;2105;52.300;9.182;2022-09-12T03:17:17;23.43;;;12.63;;
4182;SDS011;2105;52.300;9.182;2022-09-12T03:19:57;20.10;;;13.00;;
4182;SDS011;2105;52.300;9.182;2022-09-12T03:22:29;25.23;;;15.10;;
4182;SDS011;2105;52.300;9.182;2022-09-12T03:25:05;28.50;;;15.37;;
4182;SDS011;2105;52.300;9.182;2022-09-12T03:27:37;23.50;;;12.93;;
4182;SDS011;2105;52.300;9.182;2022-09-12T03:30:09;28.97;;;12.97;;
4182;SDS011;2105;52.300;9.182;2022-09-12T03:32:39;20.37;;;13.43;;
4182;SDS011;2105;52.300;9.182;2022-09-12T03:35:09;23.00;;;13.00;;
4182;SDS011;2105;52.300;9.182;2022-09-12T03:37:37;20.13;;;11.73;;
4182;SDS011;2105;52.300;9.182;2022-09-12T03:40:04;24.03;;;12.40;;
4182;SDS011;2105;52.300;9.182;2022-09-12T03:42:32;23.70;;;13.20;;
4182;SDS011;2105;52.300;9.182;2022-09-12T03:44:59;23.50;;;14.10;;
4182;SDS011;2105;52.300;9.182;2022-09-12T03:47:26;18.10;;;12.17;;
4182;SDS011;2105;52.300;9.182;2022-09-12T03:49:52;22.43;;;14.40;;
4182;SDS011;2105;52.300;9.182;2022-09-12T03:52:20;24.60;;;14.80;;
4182;SDS011;2105;52.300;9.182;2022-09-12T03:54:47;24.67;;;14.43;;
4182;SDS011;2105;52.300;9.182;2022-09-12T03:57:14;26.53;;;15.90;;
4182;SDS011;2105;52.300;9.182;2022-09-12T03:59:41;22.83;;;15.17;;
4182;SDS011;2105;52.300;9.182;2022-09-12T04:02:08;31.60;;;16.80;;
4182;SDS011;2105;52.300;9.182;2022-09-12T04:04:36;26.00;;;14.73;;
4182;SDS011;2105;52.300;9.182;2022-09-12T04:07:03;27.00;;;15.90;;
4182;SDS011;2105;52.300;9.182;2022-09-12T04:09:31;24.77;;;14.90;;
4182;SDS011;2105;52.300;9.182;2022-09-12T04:11:58;22.43;;;14.30;;
4182;SDS011;2105;52.300;9.182;2022-09-12T04:14:24;21.87;;;14.37;;
4182;SDS011;2105;52.300;9.182;2022-09-12T04:16:51;22.00;;;12.73;;
4182;SDS011;2105;52.300;9.182;2022-09-12T04:19:18;15.77;;;11.43;;
4182;SDS011;2105;52.300;9.182;2022-09-12T04:21:44;26.67;;;14.00;;
4182;SDS011;2105;52.300;9.182;2022-09-12T04:24:11;21.97;;;14.40;;
4182;SDS011;2105;52.300;9.182;2022-09-12T04:26:39;23.73;;;15.17;;
4182;SDS011;2105;52.300;9.182;2022-09-12T04:29:06;26.13;;;16.30;;
4182;SDS011;2105;52.300;9.182;2022-09-12T04:31:34;30.57;;;17.73;;
4182;SDS011;2105;52.300;9.182;2022-09-12T04:34:01;30.40;;;16.77;;
4182;SDS011;2105;52.300;9.182;2022-09-12T04:36:29;29.47;;;16.13;;
4182;SDS011;2105;52.300;9.182;2022-09-12T04:38:57;25.63;;;14.63;;
4182;SDS011;2105;52.300;9.182;2022-09-12T04:41:25;34.70;;;18.47;;
4182;SDS011;2105;52.300;9.182;2022-09-12T04:43:57;30.77;;;17.50;;
4182;SDS011;2105;52.300;9.182;2022-09-12T04:46:26;35.70;;;16.07;;
4182;SDS011;2105;52.300;9.182;2022-09-12T04:48:54;25.70;;;16.70;;
4182;SDS011;2105;52.300;9.182;2022-09-12T04:51:24;25.57;;;15.20;;
4182;SDS011;2105;52.300;9.182;2022-09-12T04:53:53;27.73;;;16.37;;
4182;SDS011;2105;52.300;9.182;2022-09-12T04:56:21;27.53;;;16.23;;
4182;SDS011;2105;52.300;9.182;2022-09-12T04:58:49;37.93;;;16.93;;
4182;SDS011;2105;52.300;9.182;2022-09-12T05:01:20;26.80;;;15.40;;
4182;SDS011;2105;52.300;9.182;2022-09-12T05:03:47;27.00;;;15.80;;
4182;SDS011;2105;52.300;9.182;2022-09-12T05:06:16;28.10;;;16.50;;
4182;SDS011;2105;52.300;9.182;2022-09-12T05:08:43;32.87;;;18.67;;
4182;SDS011;2105;52.300;9.182;2022-09-12T05:11:12;31.33;;;17.23;;
4182;SDS011;2105;52.300;9.182;2022-09-12T05:13:40;26.67;;;16.57;;
4182;SDS011;2105;52.300;9.182;2022-09-12T05:16:07;29.50;;;17.47;;
4182;SDS011;2105;52.300;9.182;2022-09-12T05:18:37;31.37;;;15.40;;
4182;SDS011;2105;52.300;9.182;2022-09-12T05:21:05;27.53;;;16.13;;
4182;SDS011;2105;52.300;9.182;2022-09-12T05:23:33;28.13;;;16.20;;
4182;SDS011;2105;52.300;9.182;2022-09-12T05:26:01;28.43;;;15.80;;
4182;SDS011;2105;52.300;9.182;2022-09-12T05:28:30;40.80;;;17.47;;
4182;SDS011;2105;52.300;9.182;2022-09-12T05:31:01;33.03;;;16.47;;
4182;SDS011;2105;52.300;9.182;2022-09-12T05:33:29;32.20;;;16.10;;
4182;SDS011;2105;52.300;9.182;2022-09-12T05:35:58;33.83;;;16.70;;
4182;SDS011;2105;52.300;9.182;2022-09-12T05:38:26;28.67;;;16.97;;
4182;SDS011;2105;52.300;9.182;2022-09-12T05:40:53;37.40;;;18.30;;
4182;SDS011;2105;52.300;9.182;2022-09-12T05:43:20;26.63;;;16.33;;
4182;SDS011;2105;52.300;9.182;2022-09-12T05:45:46;31.97;;;17.40;;
4182;SDS011;2105;52.300;9.182;2022-09-12T05:48:13;29.47;;;16.00;;
4182;SDS011;2105;52.300;9.182;2022-09-12T05:50:40;26.20;;;17.20;;
4182;SDS011;2105;52.300;9.182;2022-09-12T05:53:09;29.70;;;16.20;;
4182;SDS011;2105;52.300;9.182;2022-09-12T05:55:35;31.37;;;17.27;;
4182;SDS011;2105;52.300;9.182;2022-09-12T05:58:02;28.53;;;15.60;;
4182;SDS011;2105;52.300;9.182;2022-09-12T06:00:29;25.60;;;15.90;;
4182;SDS011;2105;52.300;9.182;2022-09-12T06:02:56;26.33;;;15.40;;
4182;SDS011;2105;52.300;9.182;2022-09-12T06:05:23;23.23;;;14.57;;
4182;SDS011;2105;52.300;9.182;2022-09-12T06:07:50;27.60;;;15.90;;
4182;SDS011;2105;52.300;9.182;2022-09-12T06:10:18;27.70;;;14.40;;
4182;SDS011;2105;52.300;9.182;2022-09-12T06:12:47;25.83;;;15.10;;
4182;SDS011;2105;52.300;9.182;2022-09-12T06:15:13;23.73;;;14.70;;
4182;SDS011;2105;52.300;9.182;2022-09-12T06:17:40;23.70;;;14.00;;
4182;SDS011;2105;52.300;9.182;2022-09-12T06:20:07;23.73;;;14.43;;
4182;SDS011;2105;52.300;9.182;2022-09-12T06:22:34;22.00;;;14.17;;
4182;SDS011;2105;52.300;9.182;2022-09-12T06:25:01;24.60;;;14.50;;
4182;SDS011;2105;52.300;9.182;2022-09-12T06:27:30;18.80;;;12.93;;
4182;SDS011;2105;52.300;9.182;2022-09-12T06:29:57;25.73;;;12.63;;
4182;SDS011;2105;52.300;9.182;2022-09-12T06:32:23;21.27;;;12.93;;
4182;SDS011;2105;52.300;9.182;2022-09-12T06:34:50;22.03;;;13.80;;
4182;SDS011;2105;52.300;9.182;2022-09-12T06:37:17;21.50;;;13.70;;
4182;SDS011;2105;52.300;9.182;2022-09-12T06:39:44;20.60;;;14.03;;
4182;SDS011;2105;52.300;9.182;2022-09-12T06:42:10;17.80;;;13.90;;
4182;SDS011;2105;52.300;9.182;2022-09-12T06:44:40;23.73;;;14.63;;
4182;SDS011;2105;52.300;9.182;2022-09-12T06:47:06;24.53;;;14.23;;
4182;SDS011;2105;52.300;9.182;2022-09-12T06:49:33;24.70;;;15.00;;
4182;SDS011;2105;52.300;9.182;2022-09-12T06:52:00;23.70;;;14.60;;
4182;SDS011;2105;52.300;9.182;2022-09-12T06:54:27;25.77;;;15.10;;
4182;SDS011;2105;52.300;9.182;2022-09-12T06:56:55;26.80;;;15.87;;
4182;SDS011;2105;52.300;9.182;2022-09-12T06:59:21;26.90;;;15.90;;
4182;SDS011;2105;52.300;9.182;2022-09-12T07:01:50;27.67;;;14.67;;
4182;SDS011;2105;52.300;9.182;2022-09-12T07:04:16;23.87;;;14.47;;
4182;SDS011;2105;52.300;9.182;2022-09-12T07:06:43;27.43;;;16.20;;
4182;SDS011;2105;52.300;9.182;2022-09-12T07:09:11;21.17;;;13.10;;
4182;SDS011;2105;52.300;9.182;2022-09-12T07:11:40;21.57;;;13.60;;
4182;SDS011;2105;52.300;9.182;2022-09-12T07:14:09;19.13;;;13.40;;
4182;SDS011;2105;52.300;9.182;2022-09-12T07:16:37;27.33;;;13.57;;
4182;SDS011;2105;52.300;9.182;2022-09-12T07:19:06;19.80;;;13.50;;
4182;SDS011;2105;52.300;9.182;2022-09-12T07:21:34;29.50;;;13.97;;
4182;SDS011;2105;52.300;9.182;2022-09-12T07:24:03;19.33;;;13.47;;
4182;SDS011;2105;52.300;9.182;2022-09-12T07:26:32;18.80;;;12.10;;
4182;SDS011;2105;52.300;9.182;2022-09-12T07:28:59;22.73;;;11.23;;
4182;SDS011;2105;52.300;9.182;2022-09-12T07:31:27;21.10;;;11.67;;
4182;SDS011;2105;52.300;9.182;2022-09-12T07:33:54;19.80;;;10.47;;
4182;SDS011;2105;52.300;9.182;2022-09-12T07:36:22;18.47;;;10.50;;
4182;SDS011;2105;52.300;9.182;2022-09-12T07:38:52;7.80;;;6.53;;
4182;SDS011;2105;52.300;9.182;2022-09-12T07:41:20;11.43;;;6.93;;
4182;SDS011;2105;52.300;9.182;2022-09-12T07:43:50;11.80;;;6.73;;
4182;SDS011;2105;52.300;9.182;2022-09-12T07:46:17;10.47;;;7.00;;
4182;SDS011;2105;52.300;9.182;2022-09-12T07:48:44;10.73;;;6.77;;
4182;SDS011;2105;52.300;9.182;2022-09-12T07:51:19;11.90;;;5.70;;
4182;SDS011;2105;52.300;9.182;2022-09-12T07:53:48;9.13;;;6.40;;
4182;SDS011;2105;52.300;9.182;2022-09-12T07:56:16;11.33;;;5.90;;
4182;SDS011;2105;52.300;9.182;2022-09-12T07:58:43;8.50;;;6.00;;
4182;SDS011;2105;52.300;9.182;2022-09-12T08:01:11;6.40;;;4.80;;
4182;SDS011;2105;52.300;9.182;2022-09-12T08:03:40;7.67;;;5.20;;
4182;SDS011;2105;52.300;9.182;2022-09-12T08:06:08;6.13;;;4.50;;
4182;SDS011;2105;52.300;9.182;2022-09-12T08:08:37;5.80;;;4.73;;
4182;SDS011;2105;52.300;9.182;2022-09-12T08:11:05;5.97;;;5.07;;
4182;SDS011;2105;52.300;9.182;2022-09-12T08:13:33;5.13;;;4.63;;
4182;SDS011;2105;52.300;9.182;2022-09-12T08:16:02;6.53;;;4.70;;
4182;SDS011;2105;52.300;9.182;2022-09-12T08:18:31;4.83;;;4.37;;
4182;SDS011;2105;52.300;9.182;2022-09-12T08:20:58;5.60;;;4.10;;
4182;SDS011;2105;52.300;9.182;2022-09-12T08:23:25;5.40;;;4.03;;
4182;SDS011;2105;52.300;9.182;2022-09-12T08:25:55;7.63;;;4.43;;
4182;SDS011;2105;52.300;9.182;2022-09-12T08:28:23;5.10;;;3.97;;
4182;SDS011;2105;52.300;9.182;2022-09-12T08:30:50;6.10;;;4.10;;
4182;SDS011;2105;52.300;9.182;2022-09-12T08:33:17;6.43;;;4.47;;
4182;SDS011;2105;52.300;9.182;2022-09-12T08:35:44;8.03;;;4.43;;
4182;SDS011;2105;52.300;9.182;2022-09-12T08:38:10;5.90;;;4.80;;
4182;SDS011;2105;52.300;9.182;2022-09-12T08:40:40;5.63;;;4.60;;
4182;SDS011;2105;52.300;9.182;2022-09-12T08:43:16;5.57;;;4.00;;
4182;SDS011;2105;52.300;9.182;2022-09-12T08:46:00;18.53;;;4.70;;
4182;SDS011;2105;52.300;9.182;2022-09-12T08:48:33;6.93;;;3.97;;
4182;SDS011;2105;52.300;9.182;2022-09-12T08:51:01;5.27;;;3.93;;
4182;SDS011;2105;52.300;9.182;2022-09-12T08:53:29;6.40;;;4.50;;
4182;SDS011;2105;52.300;9.182;2022-09-12T08:55:59;4.87;;;4.43;;
4182;SDS011;2105;52.300;9.182;2022-09-12T08:58:30;5.50;;;4.20;;
4182;SDS011;2105;52.300;9.182;2022-09-12T09:01:05;5.00;;;4.20;;
4182;SDS011;2105;52.300;9.182;2022-09-12T09:03:46;7.63;;;4.50;;
4182;SDS011;2105;52.300;9.182;2022-09-12T09:09:35;6.00;;;4.40;;
4182;SDS011;2105;52.300;9.182;2022-09-12T09:12:17;6.00;;;4.60;;
4182;SDS011;2105;52.300;9.182;2022-09-12T09:14:56;4.97;;;3.90;;
4182;SDS011;2105;52.300;9.182;2022-09-12T09:17:49;5.90;;;4.80;;
4182;SDS011;2105;52.300;9.182;2022-09-12T09:20:22;7.50;;;4.57;;
4182;SDS011;2105;52.300;9.182;2022-09-12T09:22:56;5.53;;;4.70;;
4182;SDS011;2105;52.300;9.182;2022-09-12T09:25:30;5.20;;;4.17;;
4182;SDS011;2105;52.300;9.182;2022-09-12T09:28:10;6.10;;;4.30;;
4182;SDS011;2105;52.300;9.182;2022-09-12T09:30:43;6.80;;;4.87;;
4182;SDS011;2105;52.300;9.182;2022-09-12T09:33:16;5.07;;;4.30;;
4182;SDS011;2105;52.300;9.182;2022-09-12T09:35:47;4.37;;;3.70;;
4182;SDS011;2105;52.300;9.182;2022-09-12T09:38:31;5.03;;;4.00;;
4182;SDS011;2105;52.300;9.182;2022-09-12T09:47:57;5.50;;;4.50;;
4182;SDS011;2105;52.300;9.182;2022-09-12T09:50:28;5.03;;;4.30;;
4182;SDS011;2105;52.300;9.182;2022-09-12T09:52:55;6.70;;;4.23;;
4182;SDS011;2105;52.300;9.182;2022-09-12T09:55:25;4.90;;;4.03;;
4182;SDS011;2105;52.300;9.182;2022-09-12T09:57:57;4.67;;;4.10;;
4182;SDS011;2105;52.300;9.182;2022-09-12T10:00:25;6.80;;;3.90;;
4182;SDS011;2105;52.300;9.182;2022-09-12T10:03:00;4.77;;;4.20;;
4182;SDS011;2105;52.300;9.182;2022-09-12T10:05:32;4.47;;;3.90;;
4182;SDS011;2105;52.300;9.182;2022-09-12T10:08:01;7.70;;;5.10;;
4182;SDS011;2105;52.300;9.182;2022-09-12T10:10:31;7.53;;;4.77;;
4182;SDS011;2105;52.300;9.182;2022-09-12T10:13:05;5.30;;;4.20;;
4182;SDS011;2105;52.300;9.182;2022-09-12T10:15:34;5.43;;;4.60;;
4182;SDS011;2105;52.300;9.182;2022-09-12T10:18:03;5.07;;;4.43;;
4182;SDS011;2105;52.300;9.182;2022-09-12T10:20:32;5.67;;;4.23;;
4182;SDS011;2105;52.300;9.182;2022-09-12T10:23:02;6.37;;;4.80;;
4182;SDS011;2105;52.300;9.182;2022-09-12T10:25:43;5.10;;;3.77;;
4182;SDS011;2105;52.300;9.182;2022-09-12T10:28:11;6.30;;;4.90;;
4182;SDS011;2105;52.300;9.182;2022-09-12T10:30:51;6.23;;;4.43;;
4182;SDS011;2105;52.300;9.182;2022-09-12T10:33:21;6.07;;;4.60;;
4182;SDS011;2105;52.300;9.182;2022-09-12T10:35:51;5.43;;;4.30;;
4182;SDS011;2105;52.300;9.182;2022-09-12T10:38:20;5.13;;;4.33;;
4182;SDS011;2105;52.300;9.182;2022-09-12T10:40:54;7.07;;;4.77;;
4182;SDS011;2105;52.300;9.182;2022-09-12T10:43:25;4.63;;;4.23;;
4182;SDS011;2105;52.300;9.182;2022-09-12T11:58:09;6.30;;;4.83;;
4182;SDS011;2105;52.300;9.182;2022-09-12T12:00:38;6.33;;;4.67;;
4182;SDS011;2105;52.300;9.182;2022-09-12T12:03:12;5.40;;;4.73;;
4182;SDS011;2105;52.300;9.182;2022-09-12T12:05:44;6.77;;;4.50;;
4182;SDS011;2105;52.300;9.182;2022-09-12T12:08:16;5.73;;;4.40;;
4182;SDS011;2105;52.300;9.182;2022-09-12T12:10:47;4.70;;;4.20;;
4182;SDS011;2105;52.300;9.182;2022-09-12T12:13:18;5.87;;;5.17;;
4182;SDS011;2105;52.300;9.182;2022-09-12T12:15:49;4.70;;;4.40;;
4182;SDS011;2105;52.300;9.182;2022-09-12T12:18:20;5.47;;;4.80;;
4182;SDS011;2105;52.300;9.182;2022-09-12T12:20:49;8.00;;;5.17;;
4182;SDS011;2105;52.300;9.182;2022-09-12T12:23:24;5.80;;;5.20;;
4182;SDS011;2105;52.300;9.182;2022-09-12T12:25:52;5.00;;;4.53;;
4182;SDS011;2105;52.300;9.182;2022-09-12T12:31:22;5.00;;;4.60;;
4182;SDS011;2105;52.300;9.182;2022-09-12T12:33:53;5.60;;;5.07;;
4182;SDS011;2105;52.300;9.182;2022-09-12T12:36:44;5.57;;;5.13;;
4182;SDS011;2105;52.300;9.182;2022-09-12T12:45:56;8.07;;;5.20;;
4182;SDS011;2105;52.300;9.182;2022-09-12T12:48:32;6.17;;;5.67;;
4182;SDS011;2105;52.300;9.182;2022-09-12T12:51:29;5.97;;;5.43;;
4182;SDS011;2105;52.300;9.182;2022-09-12T12:54:00;8.60;;;5.50;;
4182;SDS011;2105;52.300;9.182;2022-09-12T12:56:32;6.93;;;6.43;;
4182;SDS011;2105;52.300;9.182;2022-09-12T12:59:03;9.10;;;6.10;;
4182;SDS011;2105;52.300;9.182;2022-09-12T13:01:44;6.47;;;5.97;;
4182;SDS011;2105;52.300;9.182;2022-09-12T13:04:14;6.73;;;6.23;;
4182;SDS011;2105;52.300;9.182;2022-09-12T13:06:44;6.33;;;5.73;;
4182;SDS011;2105;52.300;9.182;2022-09-12T13:09:20;6.50;;;6.00;;
4182;SDS011;2105;52.300;9.182;2022-09-12T13:11:55;6.30;;;5.80;;
4182;SDS011;2105;52.300;9.182;2022-09-12T13:14:32;6.30;;;5.80;;
4182;SDS011;2105;52.300;9.182;2022-09-12T13:17:16;6.33;;;5.80;;
4182;SDS011;2105;52.300;9.182;2022-09-12T13:19:50;8.10;;;6.07;;
4182;SDS011;2105;52.300;9.182;2022-09-12T13:22:21;6.47;;;6.07;;
4182;SDS011;2105;52.300;9.182;2022-09-12T13:24:49;6.10;;;5.70;;
4182;SDS011;2105;52.300;9.182;2022-09-12T13:27:17;6.73;;;6.23;;
4182;SDS011;2105;52.300;9.182;2022-09-12T13:29:45;7.07;;;6.47;;
4182;SDS011;2105;52.300;9.182;2022-09-12T13:32:12;6.30;;;5.90;;
4182;SDS011;2105;52.300;9.182;2022-09-12T13:34:45;7.20;;;6.60;;
4182;SDS011;2105;52.300;9.182;2022-09-12T13:37:27;7.53;;;6.83;;
4182;SDS011;2105;52.300;9.182;2022-09-12T13:40:15;6.87;;;6.20;;
4182;SDS011;2105;52.300;9.182;2022-09-12T13:42:53;9.93;;;6.50;;
4182;SDS011;2105;52.300;9.182;2022-09-12T13:45:35;7.50;;;6.87;;
4182;SDS011;2105;52.300;9.182;2022-09-12T13:48:05;7.93;;;6.80;;
4182;SDS011;2105;52.300;9.182;2022-09-12T13:50:38;7.40;;;6.80;;
4182;SDS011;2105;52.300;9.182;2022-09-12T13:53:10;7.17;;;6.67;;
4182;SDS011;2105;52.300;9.182;2022-09-12T13:55:41;7.37;;;6.77;;
4182;SDS011;2105;52.300;9.182;2022-09-12T13:58:15;6.73;;;6.20;;
4182;SDS011;2105;52.300;9.182;2022-09-12T14:00:44;6.93;;;6.50;;
4182;SDS011;2105;52.300;9.182;2022-09-12T14:06:09;6.63;;;6.13;;
4182;SDS011;2105;52.300;9.182;2022-09-12T14:08:40;6.93;;;6.40;;
4182;SDS011;2105;52.300;9.182;2022-09-12T14:11:08;7.00;;;6.50;;
4182;SDS011;2105;52.300;9.182;2022-09-12T14:13:37;7.03;;;6.43;;
4182;SDS011;2105;52.300;9.182;2022-09-12T14:16:05;7.40;;;6.90;;
4182;SDS011;2105;52.300;9.182;2022-09-12T14:18:35;7.13;;;6.53;;
4182;SDS011;2105;52.300;9.182;2022-09-12T14:21:06;7.23;;;6.73;;
4182;SDS011;2105;52.300;9.182;2022-09-12T14:23:37;7.53;;;7.00;;
4182;SDS011;2105;52.300;9.182;2022-09-12T14:26:08;7.80;;;7.07;;
4182;SDS011;2105;52.300;9.182;2022-09-12T14:28:38;7.80;;;7.20;;
4182;SDS011;2105;52.300;9.182;2022-09-12T14:31:06;7.53;;;6.93;;
4182;SDS011;2105;52.300;9.182;2022-09-12T14:33:49;7.80;;;7.20;;
4182;SDS011;2105;52.300;9.182;2022-09-12T14:36:24;7.63;;;7.03;;
4182;SDS011;2105;52.300;9.182;2022-09-12T14:38:55;7.40;;;6.90;;
4182;SDS011;2105;52.300;9.182;2022-09-12T14:41:26;8.70;;;8.00;;
4182;SDS011;2105;52.300;9.182;2022-09-12T14:43:55;8.63;;;7.90;;
4182;SDS011;2105;52.300;9.182;2022-09-12T14:46:26;8.20;;;7.60;;
4182;SDS011;2105;52.300;9.182;2022-09-12T14:49:00;7.80;;;7.20;;
4182;SDS011;2105;52.300;9.182;2022-09-12T14:51:33;9.37;;;8.47;;
4182;SDS011;2105;52.300;9.182;2022-09-12T14:54:04;8.47;;;7.77;;
4182;SDS011;2105;52.300;9.182;2022-09-12T14:56:38;9.00;;;8.30;;
4182;SDS011;2105;52.300;9.182;2022-09-12T15:04:48;8.00;;;7.40;;
4182;SDS011;2105;52.300;9.182;2022-09-12T15:07:20;8.20;;;7.60;;
4182;SDS011;2105;52.300;9.182;2022-09-12T15:09:55;8.97;;;8.17;;
4182;SDS011;2105;52.300;9.182;2022-09-12T15:12:23;8.23;;;7.63;;
4182;SDS011;2105;52.300;9.182;2022-09-12T15:14:50;8.23;;;7.50;;
4182;SDS011;2105;52.300;9.182;2022-09-12T15:17:17;9.40;;;8.43;;
4182;SDS011;2105;52.300;9.182;2022-09-12T15:19:44;8.20;;;7.53;;
4182;SDS011;2105;52.300;9.182;2022-09-12T15:22:12;9.00;;;8.30;;
4182;SDS011;2105;52.300;9.182;2022-09-12T15:24:39;8.17;;;7.37;;
4182;SDS011;2105;52.300;9.182;2022-09-12T15:27:08;9.40;;;8.40;;
4182;SDS011;2105;52.300;9.182;2022-09-12T15:29:35;8.83;;;7.93;;
4182;SDS011;2105;52.300;9.182;2022-09-12T15:32:02;8.57;;;8.00;;
4182;SDS011;2105;52.300;9.182;2022-09-12T15:34:31;9.07;;;8.10;;
4182;SDS011;2105;52.300;9.182;2022-09-12T15:36:58;7.90;;;7.40;;
4182;SDS011;2105;52.300;9.182;2022-09-12T15:39:26;8.70;;;8.10;;
4182;SDS011;2105;52.300;9.182;2022-09-12T15:41:52;8.03;;;7.50;;
4182;SDS011;2105;52.300;9.182;2022-09-12T15:44:19;8.67;;;8.00;;
4182;SDS011;2105;52.300;9.182;2022-09-12T15:46:47;8.00;;;7.30;;
4182;SDS011;2105;52.300;9.182;2022-09-12T15:49:14;9.20;;;7.80;;
4182;SDS011;2105;52.300;9.182;2022-09-12T15:51:41;7.90;;;7.13;;
4182;SDS011;2105;52.300;9.182;2022-09-12T15:54:08;7.97;;;7.37;;
4182;SDS011;2105;52.300;9.182;2022-09-12T15:56:40;7.80;;;7.10;;
4182;SDS011;2105;52.300;9.182;2022-09-12T15:59:07;8.40;;;7.60;;
4182;SDS011;2105;52.300;9.182;2022-09-12T16:01:34;9.10;;;8.20;;
4182;SDS011;2105;52.300;9.182;2022-09-12T16:04:01;7.83;;;7.13;;
4182;SDS011;2105;52.300;9.182;2022-09-12T16:06:28;7.93;;;7.33;;
4182;SDS011;2105;52.300;9.182;2022-09-12T16:08:57;7.50;;;7.00;;
4182;SDS011;2105;52.300;9.182;2022-09-12T16:11:25;8.00;;;7.40;;
4182;SDS011;2105;52.300;9.182;2022-09-12T16:13:54;8.10;;;7.50;;
4182;SDS011;2105;52.300;9.182;2022-09-12T16:16:21;7.70;;;7.20;;
4182;SDS011;2105;52.300;9.182;2022-09-12T16:18:47;8.43;;;7.73;;
4182;SDS011;2105;52.300;9.182;2022-09-12T16:21:14;8.00;;;7.40;;
4182;SDS011;2105;52.300;9.182;2022-09-12T16:23:41;9.00;;;8.00;;
4182;SDS011;2105;52.300;9.182;2022-09-12T16:26:08;7.80;;;7.23;;
4182;SDS011;2105;52.300;9.182;2022-09-12T16:28:35;7.80;;;7.30;;
4182;SDS011;2105;52.300;9.182;2022-09-12T16:31:03;8.30;;;7.60;;
4182;SDS011;2105;52.300;9.182;2022-09-12T16:33:31;8.90;;;8.00;;
4182;SDS011;2105;52.300;9.182;2022-09-12T16:35:59;8.10;;;7.50;;
4182;SDS011;2105;52.300;9.182;2022-09-12T16:38:28;8.13;;;7.53;;
4182;SDS011;2105;52.300;9.182;2022-09-12T16:40:58;8.67;;;7.93;;
4182;SDS011;2105;52.300;9.182;2022-09-12T16:43:25;9.23;;;7.20;;
4182;SDS011;2105;52.300;9.182;2022-09-12T16:45:58;8.27;;;7.57;;
4182;SDS011;2105;52.300;9.182;2022-09-12T16:48:28;7.60;;;7.00;;
4182;SDS011;2105;52.300;9.182;2022-09-12T16:50:55;7.97;;;7.27;;
4182;SDS011;2105;52.300;9.182;2022-09-12T16:53:22;10.13;;;6.70;;
4182;SDS011;2105;52.300;9.182;2022-09-12T16:55:49;6.90;;;6.33;;
4182;SDS011;2105;52.300;9.182;2022-09-12T16:58:16;6.87;;;6.37;;
4182;SDS011;2105;52.300;9.182;2022-09-12T17:00:43;8.07;;;7.23;;
4182;SDS011;2105;52.300;9.182;2022-09-12T17:03:10;7.30;;;6.70;;
4182;SDS011;2105;52.300;9.182;2022-09-12T17:05:39;7.13;;;6.60;;
4182;SDS011;2105;52.300;9.182;2022-09-12T17:08:05;7.07;;;6.57;;